sensor_id;sensor_type;location;lat;lon;timestamp;pressure;altitude;pressure_sealevel;temperature;humidity
13869;BME280;7004;48.206;16.402;2022-12-18T00:01:32;101282.81;;;-0.17;80.43
13869;BME280;7004;48.206;16.402;2022-12-18T00:04:01;101275.88;;;-0.20;81.19
13869;BME280;7004;48.206;16.402;2022-12-18T00:06:29;101280.16;;;-0.28;81.54
13869;BME280;7004;48.206;16.402;2022-12-18T00:08:57;101283.41;;;-0.60;81.08
13869;BME280;7004;48.206;16.402;2022-12-18T00:11:27;101286.91;;;-0.56;80.20
13869;BME280;7004;48.206;16.402;2022-12-18T00:13:55;101293.16;;;-0.25;79.98
13869;BME280;7004;48.206;16.402;2022-12-18T00:16:24;101301.75;;;-0.34;79.98
13869;BME280;7004;48.206;16.402;2022-12-18T00:18:53;101305.03;;;-0.61;80.33
13869;BME280;7004;48.206;16.402;2022-12-18T00:21:20;101295.41;;;-0.73;82.70
13869;BME280;7004;48.206;16.402;2022-12-18T00:23:49;101300.53;;;-0.83;80.96
13869;BME280;7004;48.206;16.402;2022-12-18T00:26:19;101302.31;;;-0.79;81.15
13869;BME280;7004;48.206;16.402;2022-12-18T00:28:46;101301.38;;;-0.88;81.23
13869;BME280;7004;48.206;16.402;2022-12-18T00:31:21;101303.13;;;-0.83;81.29
13869;BME280;7004;48.206;16.402;2022-12-18T00:33:47;101310.28;;;-0.56;79.87
13869;BME280;7004;48.206;16.402;2022-12-18T00:36:18;101315.31;;;-0.78;81.25
13869;BME280;7004;48.206;16.402;2022-12-18T00:38:46;101317.00;;;-0.83;81.32
13869;BME280;7004;48.206;16.402;2022-12-18T00:41:15;101317.91;;;-0.78;81.40
13869;BME280;7004;48.206;16.402;2022-12-18T00:44:06;101317.03;;;-0.77;81.00
13869;BME280;7004;48.206;16.402;2022-12-18T00:46:33;101310.91;;;-0.88;81.40
13869;BME280;7004;48.206;16.402;2022-12-18T00:48:59;101314.25;;;-0.98;83.40
13869;BME280;7004;48.206;16.402;2022-12-18T00:51:26;101322.16;;;-0.88;82.24
13869;BME280;7004;48.206;16.402;2022-12-18T00:53:52;101325.56;;;-0.93;83.52
13869;BME280;7004;48.206;16.402;2022-12-18T00:56:18;101329.91;;;-0.89;83.21
13869;BME280;7004;48.206;16.402;2022-12-18T00:58:48;101330.94;;;-0.72;82.20
13869;BME280;7004;48.206;16.402;2022-12-18T01:01:15;101328.19;;;-0.89;82.12
13869;BME280;7004;48.206;16.402;2022-12-18T01:03:41;101330.50;;;-1.18;83.96
13869;BME280;7004;48.206;16.402;2022-12-18T01:06:10;101328.75;;;-1.22;83.87
13869;BME280;7004;48.206;16.402;2022-12-18T01:08:38;101334.19;;;-0.94;83.36
13869;BME280;7004;48.206;16.402;2022-12-18T01:11:23;101349.13;;;-0.69;83.33
13869;BME280;7004;48.206;16.402;2022-12-18T01:13:49;101339.41;;;-0.93;83.03
13869;BME280;7004;48.206;16.402;2022-12-18T01:16:16;101345.47;;;-0.89;81.95
13869;BME280;7004;48.206;16.402;2022-12-18T01:18:45;101346.25;;;-0.99;83.23
13869;BME280;7004;48.206;16.402;2022-12-18T01:21:16;101341.00;;;-1.05;83.09
13869;BME280;7004;48.206;16.402;2022-12-18T01:23:42;101348.44;;;-1.38;83.02
13869;BME280;7004;48.206;16.402;2022-12-18T01:26:12;101345.63;;;-1.58;84.20
13869;BME280;7004;48.206;16.402;2022-12-18T01:28:40;101346.03;;;-1.21;85.42
13869;BME280;7004;48.206;16.402;2022-12-18T01:33:41;101349.50;;;-1.20;83.66
13869;BME280;7004;48.206;16.402;2022-12-18T01:36:14;101358.88;;;-1.33;84.10
13869;BME280;7004;48.206;16.402;2022-12-18T01:38:40;101358.22;;;-1.17;83.69
13869;BME280;7004;48.206;16.402;2022-12-18T01:41:08;101372.19;;;-1.74;85.20
13869;BME280;7004;48.206;16.402;2022-12-18T01:43:50;101372.16;;;-1.77;85.53
13869;BME280;7004;48.206;16.402;2022-12-18T01:46:18;101366.31;;;-1.62;85.05
13869;BME280;7004;48.206;16.402;2022-12-18T01:48:48;101374.09;;;-1.62;84.60
13869;BME280;7004;48.206;16.402;2022-12-18T01:51:15;101372.28;;;-1.68;85.80
13869;BME280;7004;48.206;16.402;2022-12-18T01:53:42;101368.16;;;-1.52;84.40
13869;BME280;7004;48.206;16.402;2022-12-18T01:56:17;101374.69;;;-1.82;85.59
13869;BME280;7004;48.206;16.402;2022-12-18T01:59:02;101385.94;;;-1.81;85.96
13869;BME280;7004;48.206;16.402;2022-12-18T02:01:30;101378.09;;;-1.86;86.14
13869;BME280;7004;48.206;16.402;2022-12-18T02:04:25;101377.44;;;-1.69;85.99
13869;BME280;7004;48.206;16.402;2022-12-18T02:07:17;101370.97;;;-1.34;83.89
13869;BME280;7004;48.206;16.402;2022-12-18T02:10:08;101374.53;;;-1.27;84.24
13869;BME280;7004;48.206;16.402;2022-12-18T02:13:21;101385.69;;;-1.33;82.79
13869;BME280;7004;48.206;16.402;2022-12-18T02:16:24;101387.84;;;-1.68;84.67
13869;BME280;7004;48.206;16.402;2022-12-18T02:19:00;101393.09;;;-2.24;86.96
13869;BME280;7004;48.206;16.402;2022-12-18T02:26:58;101390.44;;;-1.68;86.84
13869;BME280;7004;48.206;16.402;2022-12-18T02:29:34;101397.50;;;-1.58;85.09
13869;BME280;7004;48.206;16.402;2022-12-18T02:32:08;101393.81;;;-1.75;86.41
13869;BME280;7004;48.206;16.402;2022-12-18T02:34:38;101400.72;;;-1.74;86.36
13869;BME280;7004;48.206;16.402;2022-12-18T02:37:10;101400.59;;;-1.82;86.95
13869;BME280;7004;48.206;16.402;2022-12-18T02:39:41;101405.13;;;-1.68;85.84
13869;BME280;7004;48.206;16.402;2022-12-18T02:42:08;101401.63;;;-1.72;85.63
13869;BME280;7004;48.206;16.402;2022-12-18T02:44:49;101399.84;;;-1.76;86.44
13869;BME280;7004;48.206;16.402;2022-12-18T02:47:24;101399.56;;;-1.27;85.38
13869;BME280;7004;48.206;16.402;2022-12-18T02:53:06;101403.19;;;-1.15;83.55
13869;BME280;7004;48.206;16.402;2022-12-18T02:55:54;101411.72;;;-1.25;83.56
13869;BME280;7004;48.206;16.402;2022-12-18T03:01:33;101422.72;;;-1.43;83.66
13869;BME280;7004;48.206;16.402;2022-12-18T03:04:20;101426.25;;;-1.38;83.76
13869;BME280;7004;48.206;16.402;2022-12-18T03:06:55;101422.22;;;-1.16;84.08
13869;BME280;7004;48.206;16.402;2022-12-18T03:09:40;101428.72;;;-1.50;84.06
13869;BME280;7004;48.206;16.402;2022-12-18T03:12:35;101430.59;;;-1.38;83.38
13869;BME280;7004;48.206;16.402;2022-12-18T03:15:12;101418.84;;;-1.07;83.06
13869;BME280;7004;48.206;16.402;2022-12-18T03:17:46;101417.69;;;-1.34;82.53
13869;BME280;7004;48.206;16.402;2022-12-18T03:20:21;101422.72;;;-1.43;83.92
13869;BME280;7004;48.206;16.402;2022-12-18T03:22:53;101432.16;;;-1.52;83.78
13869;BME280;7004;48.206;16.402;2022-12-18T03:25:22;101428.41;;;-1.73;84.77
13869;BME280;7004;48.206;16.402;2022-12-18T03:27:53;101427.50;;;-1.75;85.63
13869;BME280;7004;48.206;16.402;2022-12-18T03:30:21;101427.47;;;-1.78;84.96
13869;BME280;7004;48.206;16.402;2022-12-18T03:32:58;101428.47;;;-1.68;84.70
13869;BME280;7004;48.206;16.402;2022-12-18T03:35:32;101425.84;;;-1.70;84.46
13869;BME280;7004;48.206;16.402;2022-12-18T03:37:59;101427.34;;;-1.84;85.29
13869;BME280;7004;48.206;16.402;2022-12-18T03:40:57;101433.81;;;-1.56;83.85
13869;BME280;7004;48.206;16.402;2022-12-18T03:43:48;101435.75;;;-1.41;83.47
13869;BME280;7004;48.206;16.402;2022-12-18T03:54:56;101428.13;;;-1.29;82.10
13869;BME280;7004;48.206;16.402;2022-12-18T03:57:28;101434.88;;;-1.40;83.78
13869;BME280;7004;48.206;16.402;2022-12-18T04:00:00;101439.25;;;-1.36;83.24
13869;BME280;7004;48.206;16.402;2022-12-18T04:02:28;101445.31;;;-1.36;81.98
13869;BME280;7004;48.206;16.402;2022-12-18T04:04:59;101446.09;;;-1.44;83.95
13869;BME280;7004;48.206;16.402;2022-12-18T04:07:27;101448.66;;;-1.44;83.21
13869;BME280;7004;48.206;16.402;2022-12-18T04:09:56;101445.44;;;-1.25;82.92
13869;BME280;7004;48.206;16.402;2022-12-18T04:12:25;101449.38;;;-1.58;83.32
13869;BME280;7004;48.206;16.402;2022-12-18T04:14:54;101462.47;;;-1.47;83.52
13869;BME280;7004;48.206;16.402;2022-12-18T04:17:21;101464.25;;;-1.43;82.78
13869;BME280;7004;48.206;16.402;2022-12-18T04:19:48;101465.28;;;-1.32;82.43
13869;BME280;7004;48.206;16.402;2022-12-18T04:22:14;101464.66;;;-1.76;82.85
13869;BME280;7004;48.206;16.402;2022-12-18T04:24:41;101465.09;;;-1.44;82.46
13869;BME280;7004;48.206;16.402;2022-12-18T04:27:07;101459.63;;;-1.64;83.47
13869;BME280;7004;48.206;16.402;2022-12-18T04:29:33;101473.47;;;-1.65;83.37
13869;BME280;7004;48.206;16.402;2022-12-18T04:31:59;101470.06;;;-1.59;82.61
13869;BME280;7004;48.206;16.402;2022-12-18T04:34:25;101474.69;;;-1.40;82.95
13869;BME280;7004;48.206;16.402;2022-12-18T04:36:51;101476.28;;;-1.49;83.27
13869;BME280;7004;48.206;16.402;2022-12-18T04:39:17;101482.34;;;-1.46;83.02
13869;BME280;7004;48.206;16.402;2022-12-18T04:41:43;101484.72;;;-1.63;83.00
13869;BME280;7004;48.206;16.402;2022-12-18T04:44:10;101490.00;;;-1.57;81.49
13869;BME280;7004;48.206;16.402;2022-12-18T04:46:36;101483.03;;;-1.59;82.00
13869;BME280;7004;48.206;16.402;2022-12-18T04:49:02;101483.78;;;-1.66;82.05
13869;BME280;7004;48.206;16.402;2022-12-18T04:51:28;101489.69;;;-1.77;82.40
13869;BME280;7004;48.206;16.402;2022-12-18T04:53:54;101492.13;;;-1.87;83.08
13869;BME280;7004;48.206;16.402;2022-12-18T04:56:20;101493.06;;;-1.82;83.13
13869;BME280;7004;48.206;16.402;2022-12-18T04:58:47;101493.09;;;-1.79;82.44
13869;BME280;7004;48.206;16.402;2022-12-18T05:01:16;101495.66;;;-1.84;82.70
13869;BME280;7004;48.206;16.402;2022-12-18T05:03:42;101502.72;;;-1.73;82.83
13869;BME280;7004;48.206;16.402;2022-12-18T05:06:09;101507.63;;;-1.90;83.10
13869;BME280;7004;48.206;16.402;2022-12-18T05:08:36;101512.56;;;-2.06;83.85
13869;BME280;7004;48.206;16.402;2022-12-18T05:11:14;101520.47;;;-2.00;83.31
13869;BME280;7004;48.206;16.402;2022-12-18T05:13:46;101517.97;;;-1.93;83.37
13869;BME280;7004;48.206;16.402;2022-12-18T05:16:13;101526.06;;;-1.73;83.34
13869;BME280;7004;48.206;16.402;2022-12-18T05:18:39;101518.28;;;-1.73;82.82
13869;BME280;7004;48.206;16.402;2022-12-18T05:21:05;101524.47;;;-1.64;83.37
13869;BME280;7004;48.206;16.402;2022-12-18T05:23:31;101520.59;;;-1.90;83.83
13869;BME280;7004;48.206;16.402;2022-12-18T05:26:04;101526.16;;;-2.19;85.01
13869;BME280;7004;48.206;16.402;2022-12-18T05:28:32;101525.59;;;-2.51;85.83
13869;BME280;7004;48.206;16.402;2022-12-18T05:31:01;101529.25;;;-2.40;85.42
13869;BME280;7004;48.206;16.402;2022-12-18T05:33:32;101521.03;;;-2.65;86.81
13869;BME280;7004;48.206;16.402;2022-12-18T05:36:01;101523.00;;;-2.50;86.53
13869;BME280;7004;48.206;16.402;2022-12-18T05:38:30;101529.97;;;-2.91;87.41
13869;BME280;7004;48.206;16.402;2022-12-18T05:40:57;101538.91;;;-2.75;87.52
13869;BME280;7004;48.206;16.402;2022-12-18T05:43:25;101539.66;;;-2.81;88.58
13869;BME280;7004;48.206;16.402;2022-12-18T05:45:53;101532.34;;;-2.58;87.17
13869;BME280;7004;48.206;16.402;2022-12-18T05:48:20;101536.88;;;-2.48;85.47
13869;BME280;7004;48.206;16.402;2022-12-18T05:50:48;101536.25;;;-2.78;87.11
13869;BME280;7004;48.206;16.402;2022-12-18T05:53:19;101536.31;;;-2.75;87.46
13869;BME280;7004;48.206;16.402;2022-12-18T05:55:46;101537.50;;;-3.03;88.79
13869;BME280;7004;48.206;16.402;2022-12-18T05:58:13;101541.53;;;-3.16;90.17
13869;BME280;7004;48.206;16.402;2022-12-18T06:00:44;101544.41;;;-3.02;89.77
13869;BME280;7004;48.206;16.402;2022-12-18T06:03:12;101548.78;;;-3.00;88.79
13869;BME280;7004;48.206;16.402;2022-12-18T06:05:42;101546.94;;;-3.05;89.45
13869;BME280;7004;48.206;16.402;2022-12-18T06:08:09;101547.03;;;-3.01;88.83
13869;BME280;7004;48.206;16.402;2022-12-18T06:10:36;101559.03;;;-3.04;89.50
13869;BME280;7004;48.206;16.402;2022-12-18T06:13:02;101561.84;;;-3.33;90.58
13869;BME280;7004;48.206;16.402;2022-12-18T06:15:31;101561.09;;;-3.29;91.09
13869;BME280;7004;48.206;16.402;2022-12-18T06:17:57;101569.03;;;-3.21;91.52
13869;BME280;7004;48.206;16.402;2022-12-18T06:20:23;101565.16;;;-3.01;89.22
13869;BME280;7004;48.206;16.402;2022-12-18T06:22:49;101569.84;;;-2.81;89.71
13869;BME280;7004;48.206;16.402;2022-12-18T06:25:16;101577.72;;;-2.77;89.05
13869;BME280;7004;48.206;16.402;2022-12-18T06:27:42;101579.84;;;-2.98;89.64
13869;BME280;7004;48.206;16.402;2022-12-18T06:30:09;101584.78;;;-3.09;90.26
13869;BME280;7004;48.206;16.402;2022-12-18T06:32:36;101599.59;;;-3.03;90.32
13869;BME280;7004;48.206;16.402;2022-12-18T06:35:02;101580.41;;;-3.13;90.57
13869;BME280;7004;48.206;16.402;2022-12-18T06:37:31;101592.13;;;-3.29;91.41
13869;BME280;7004;48.206;16.402;2022-12-18T06:39:57;101585.59;;;-3.49;91.79
13869;BME280;7004;48.206;16.402;2022-12-18T06:42:25;101588.94;;;-3.55;92.71
13869;BME280;7004;48.206;16.402;2022-12-18T06:44:51;101595.22;;;-3.44;92.74
13869;BME280;7004;48.206;16.402;2022-12-18T06:47:18;101594.34;;;-3.44;92.37
13869;BME280;7004;48.206;16.402;2022-12-18T06:49:44;101594.31;;;-3.46;92.66
13869;BME280;7004;48.206;16.402;2022-12-18T06:52:10;101594.38;;;-3.43;92.40
13869;BME280;7004;48.206;16.402;2022-12-18T06:54:36;101601.69;;;-3.25;91.18
13869;BME280;7004;48.206;16.402;2022-12-18T06:57:02;101608.69;;;-3.19;91.22
13869;BME280;7004;48.206;16.402;2022-12-18T06:59:28;101610.53;;;-3.52;92.26
13869;BME280;7004;48.206;16.402;2022-12-18T07:01:54;101623.75;;;-3.74;93.14
13869;BME280;7004;48.206;16.402;2022-12-18T07:04:20;101617.88;;;-3.68;93.78
13869;BME280;7004;48.206;16.402;2022-12-18T07:06:47;101625.56;;;-3.37;93.65
13869;BME280;7004;48.206;16.402;2022-12-18T07:09:13;101625.56;;;-3.37;92.88
13869;BME280;7004;48.206;16.402;2022-12-18T07:11:38;101628.28;;;-3.31;92.67
13869;BME280;7004;48.206;16.402;2022-12-18T07:14:04;101633.31;;;-3.37;92.68
13869;BME280;7004;48.206;16.402;2022-12-18T07:16:31;101633.19;;;-3.41;93.38
13869;BME280;7004;48.206;16.402;2022-12-18T07:18:57;101637.97;;;-3.22;93.01
13869;BME280;7004;48.206;16.402;2022-12-18T07:21:24;101644.34;;;-3.08;92.22
13869;BME280;7004;48.206;16.402;2022-12-18T07:23:51;101643.59;;;-3.02;92.13
13869;BME280;7004;48.206;16.402;2022-12-18T07:26:20;101655.84;;;-2.95;92.82
13869;BME280;7004;48.206;16.402;2022-12-18T07:28:46;101656.09;;;-2.84;92.48
13869;BME280;7004;48.206;16.402;2022-12-18T07:31:19;101660.44;;;-2.81;92.07
13869;BME280;7004;48.206;16.402;2022-12-18T07:33:46;101657.16;;;-2.74;91.87
13869;BME280;7004;48.206;16.402;2022-12-18T07:36:13;101654.91;;;-2.59;91.46
13869;BME280;7004;48.206;16.402;2022-12-18T07:38:39;101657.78;;;-2.45;91.33
13869;BME280;7004;48.206;16.402;2022-12-18T07:41:12;101669.16;;;-2.38;91.81
13869;BME280;7004;48.206;16.402;2022-12-18T07:43:40;101669.31;;;-2.29;91.47
13869;BME280;7004;48.206;16.402;2022-12-18T07:46:08;101671.91;;;-2.31;91.17
13869;BME280;7004;48.206;16.402;2022-12-18T07:48:34;101676.06;;;-2.37;91.67
13869;BME280;7004;48.206;16.402;2022-12-18T07:51:06;101688.03;;;-2.43;91.55
13869;BME280;7004;48.206;16.402;2022-12-18T07:53:34;101693.28;;;-2.41;91.98
13869;BME280;7004;48.206;16.402;2022-12-18T07:56:09;101686.38;;;-2.39;91.98
13869;BME280;7004;48.206;16.402;2022-12-18T07:58:36;101693.81;;;-2.15;90.88
13869;BME280;7004;48.206;16.402;2022-12-18T08:01:10;101698.97;;;-2.15;90.57
13869;BME280;7004;48.206;16.402;2022-12-18T08:03:38;101712.91;;;-2.08;90.46
13869;BME280;7004;48.206;16.402;2022-12-18T08:06:08;101702.84;;;-1.94;88.95
13869;BME280;7004;48.206;16.402;2022-12-18T08:08:35;101707.19;;;-1.93;88.77
13869;BME280;7004;48.206;16.402;2022-12-18T08:11:01;101711.13;;;-2.12;89.28
13869;BME280;7004;48.206;16.402;2022-12-18T08:13:28;101711.03;;;-2.15;90.03
13869;BME280;7004;48.206;16.402;2022-12-18T08:16:03;101706.75;;;-2.15;89.13
13869;BME280;7004;48.206;16.402;2022-12-18T08:18:32;101703.72;;;-1.92;88.92
13869;BME280;7004;48.206;16.402;2022-12-18T08:21:15;101718.16;;;-2.05;89.52
13869;BME280;7004;48.206;16.402;2022-12-18T08:23:43;101713.22;;;-1.94;90.24
13869;BME280;7004;48.206;16.402;2022-12-18T08:26:11;101713.81;;;-1.62;88.00
13869;BME280;7004;48.206;16.402;2022-12-18T08:28:38;101710.56;;;-1.50;87.25
13869;BME280;7004;48.206;16.402;2022-12-18T08:31:04;101710.16;;;-1.73;86.76
13869;BME280;7004;48.206;16.402;2022-12-18T08:33:31;101710.84;;;-1.82;87.70
13869;BME280;7004;48.206;16.402;2022-12-18T08:35:59;101714.19;;;-1.89;88.96
13869;BME280;7004;48.206;16.402;2022-12-18T08:38:25;101703.44;;;-1.62;87.13
13869;BME280;7004;48.206;16.402;2022-12-18T08:41:06;101712.59;;;-1.81;87.54
13869;BME280;7004;48.206;16.402;2022-12-18T08:43:33;101714.25;;;-1.85;88.31
13869;BME280;7004;48.206;16.402;2022-12-18T08:46:23;101719.94;;;-1.57;88.40
13869;BME280;7004;48.206;16.402;2022-12-18T08:48:54;101711.59;;;-1.41;86.40
13869;BME280;7004;48.206;16.402;2022-12-18T08:51:22;101717.78;;;-1.81;88.03
13869;BME280;7004;48.206;16.402;2022-12-18T08:53:48;101721.78;;;-1.53;87.32
13869;BME280;7004;48.206;16.402;2022-12-18T08:56:15;101731.78;;;-1.71;87.57
13869;BME280;7004;48.206;16.402;2022-12-18T08:58:42;101731.75;;;-1.73;89.09
13869;BME280;7004;48.206;16.402;2022-12-18T09:01:10;101733.16;;;-1.90;87.74
13869;BME280;7004;48.206;16.402;2022-12-18T09:03:38;101735.75;;;-1.43;86.91
13869;BME280;7004;48.206;16.402;2022-12-18T09:06:05;101731.06;;;-1.64;87.06
13869;BME280;7004;48.206;16.402;2022-12-18T09:08:31;101731.47;;;-1.41;86.17
13869;BME280;7004;48.206;16.402;2022-12-18T09:10:58;101736.31;;;-1.11;85.47
13869;BME280;7004;48.206;16.402;2022-12-18T09:13:24;101729.84;;;-1.36;85.51
13869;BME280;7004;48.206;16.402;2022-12-18T09:15:53;101745.16;;;-1.00;83.34
13869;BME280;7004;48.206;16.402;2022-12-18T09:18:22;101742.31;;;-1.15;81.94
13869;BME280;7004;48.206;16.402;2022-12-18T09:20:51;101744.34;;;-1.47;84.06
13869;BME280;7004;48.206;16.402;2022-12-18T09:23:19;101740.66;;;-1.10;82.98
13869;BME280;7004;48.206;16.402;2022-12-18T09:25:45;101751.72;;;-1.20;81.27
13869;BME280;7004;48.206;16.402;2022-12-18T09:28:14;101736.50;;;-0.99;80.95
13869;BME280;7004;48.206;16.402;2022-12-18T09:30:45;101738.88;;;-1.13;80.73
13869;BME280;7004;48.206;16.402;2022-12-18T09:33:11;101743.94;;;-1.22;81.69
13869;BME280;7004;48.206;16.402;2022-12-18T09:35:39;101738.53;;;-0.81;80.40
13869;BME280;7004;48.206;16.402;2022-12-18T09:38:05;101742.06;;;-0.76;79.99
13869;BME280;7004;48.206;16.402;2022-12-18T09:40:53;101727.88;;;-0.37;79.14
13869;BME280;7004;48.206;16.402;2022-12-18T09:43:48;101732.63;;;-0.71;79.40
13869;BME280;7004;48.206;16.402;2022-12-18T09:46:22;101736.19;;;-1.17;80.13
13869;BME280;7004;48.206;16.402;2022-12-18T09:48:53;101740.59;;;-0.58;80.55
13869;BME280;7004;48.206;16.402;2022-12-18T09:51:37;101732.56;;;-0.75;79.29
13869;BME280;7004;48.206;16.402;2022-12-18T09:54:12;101730.34;;;-0.48;78.90
13869;BME280;7004;48.206;16.402;2022-12-18T09:56:42;101724.88;;;-1.22;80.23
13869;BME280;7004;48.206;16.402;2022-12-18T09:59:26;101718.91;;;-0.60;78.68
13869;BME280;7004;48.206;16.402;2022-12-18T10:01:56;101715.53;;;-0.56;78.19
13869;BME280;7004;48.206;16.402;2022-12-18T10:04:23;101723.84;;;-0.79;80.41
13869;BME280;7004;48.206;16.402;2022-12-18T10:10:06;101721.78;;;-1.00;78.94
13869;BME280;7004;48.206;16.402;2022-12-18T10:13:14;101716.34;;;-1.15;80.16
13869;BME280;7004;48.206;16.402;2022-12-18T10:22:03;101716.75;;;-0.89;78.49
13869;BME280;7004;48.206;16.402;2022-12-18T10:24:53;101712.50;;;-0.85;78.34
13869;BME280;7004;48.206;16.402;2022-12-18T10:27:26;101706.81;;;-0.58;76.63
13869;BME280;7004;48.206;16.402;2022-12-18T10:29:53;101708.53;;;-0.60;77.94
13869;BME280;7004;48.206;16.402;2022-12-18T10:32:23;101712.81;;;-0.64;77.49
13869;BME280;7004;48.206;16.402;2022-12-18T10:34:53;101705.84;;;-0.67;77.54
13869;BME280;7004;48.206;16.402;2022-12-18T10:37:24;101706.91;;;-0.52;77.63
13869;BME280;7004;48.206;16.402;2022-12-18T10:40:15;101708.97;;;-0.27;75.96
13869;BME280;7004;48.206;16.402;2022-12-18T10:42:42;101706.56;;;-0.77;76.76
13869;BME280;7004;48.206;16.402;2022-12-18T10:45:16;101708.72;;;-0.45;76.67
13869;BME280;7004;48.206;16.402;2022-12-18T10:47:49;101714.94;;;-0.34;76.58
13869;BME280;7004;48.206;16.402;2022-12-18T10:50:41;101707.94;;;-0.39;76.26
13869;BME280;7004;48.206;16.402;2022-12-18T10:53:20;101696.94;;;-0.84;77.71
13869;BME280;7004;48.206;16.402;2022-12-18T10:55:47;101695.81;;;-0.40;76.61
13869;BME280;7004;48.206;16.402;2022-12-18T10:58:27;101696.03;;;-0.88;77.98
13869;BME280;7004;48.206;16.402;2022-12-18T11:01:17;101684.06;;;-0.76;77.88
13869;BME280;7004;48.206;16.402;2022-12-18T11:06:25;101689.66;;;-1.06;78.21
13869;BME280;7004;48.206;16.402;2022-12-18T11:09:39;101687.38;;;-0.86;77.16
13869;BME280;7004;48.206;16.402;2022-12-18T11:12:18;101685.25;;;-0.53;75.51
13869;BME280;7004;48.206;16.402;2022-12-18T11:14:53;101691.00;;;-0.08;74.87
13869;BME280;7004;48.206;16.402;2022-12-18T11:20:04;101682.28;;;-0.15;75.16
13869;BME280;7004;48.206;16.402;2022-12-18T11:22:35;101688.94;;;-0.34;76.15
13869;BME280;7004;48.206;16.402;2022-12-18T11:27:56;101687.78;;;-0.57;77.43
13869;BME280;7004;48.206;16.402;2022-12-18T11:30:30;101691.03;;;-0.74;76.24
13869;BME280;7004;48.206;16.402;2022-12-18T11:35:56;101687.31;;;-0.27;74.48
13869;BME280;7004;48.206;16.402;2022-12-18T11:38:31;101687.47;;;-0.15;74.53
13869;BME280;7004;48.206;16.402;2022-12-18T11:44:22;101674.69;;;-0.65;77.64
13869;BME280;7004;48.206;16.402;2022-12-18T11:47:00;101686.31;;;-0.38;75.10
13869;BME280;7004;48.206;16.402;2022-12-18T11:49:33;101674.16;;;-0.41;75.51
13869;BME280;7004;48.206;16.402;2022-12-18T11:52:26;101670.50;;;-0.57;76.18
13869;BME280;7004;48.206;16.402;2022-12-18T11:55:00;101657.47;;;-0.58;76.15
13869;BME280;7004;48.206;16.402;2022-12-18T12:00:19;101662.94;;;-0.37;75.42
13869;BME280;7004;48.206;16.402;2022-12-18T12:16:21;101675.22;;;-0.25;77.55
13869;BME280;7004;48.206;16.402;2022-12-18T12:19:10;101666.84;;;0.02;76.96
13869;BME280;7004;48.206;16.402;2022-12-18T12:21:46;101662.13;;;-0.33;76.32
13869;BME280;7004;48.206;16.402;2022-12-18T12:30:05;101646.31;;;-0.51;78.51
13869;BME280;7004;48.206;16.402;2022-12-18T12:33:01;101665.09;;;-0.72;78.94
13869;BME280;7004;48.206;16.402;2022-12-18T12:36:06;101656.19;;;-0.21;76.59
13869;BME280;7004;48.206;16.402;2022-12-18T12:38:47;101643.94;;;-0.97;80.77
13869;BME280;7004;48.206;16.402;2022-12-18T12:41:22;101644.84;;;-0.31;78.21
13869;BME280;7004;48.206;16.402;2022-12-18T12:44:14;101647.69;;;-0.06;76.34
13869;BME280;7004;48.206;16.402;2022-12-18T12:46:42;101648.03;;;-0.52;78.75
13869;BME280;7004;48.206;16.402;2022-12-18T12:49:19;101637.00;;;-0.32;78.66
13869;BME280;7004;48.206;16.402;2022-12-18T12:51:56;101641.28;;;-0.39;77.81
13869;BME280;7004;48.206;16.402;2022-12-18T12:54:28;101648.25;;;-0.32;78.16
13869;BME280;7004;48.206;16.402;2022-12-18T13:00:07;101652.47;;;-0.43;78.71
13869;BME280;7004;48.206;16.402;2022-12-18T13:08:27;101655.94;;;-0.42;79.73
13869;BME280;7004;48.206;16.402;2022-12-18T13:10:56;101664.69;;;-1.00;81.35
13869;BME280;7004;48.206;16.402;2022-12-18T13:13:53;101666.25;;;-0.49;79.24
13869;BME280;7004;48.206;16.402;2022-12-18T13:16:23;101668.28;;;-0.90;79.85
13869;BME280;7004;48.206;16.402;2022-12-18T13:18:54;101673.06;;;-0.58;79.13
13869;BME280;7004;48.206;16.402;2022-12-18T13:23:53;101675.97;;;-0.96;81.60
13869;BME280;7004;48.206;16.402;2022-12-18T13:28:52;101682.22;;;-0.83;80.23
13869;BME280;7004;48.206;16.402;2022-12-18T13:34:24;101686.53;;;-0.84;80.85
13869;BME280;7004;48.206;16.402;2022-12-18T13:36:52;101670.31;;;-0.68;80.99
13869;BME280;7004;48.206;16.402;2022-12-18T13:41:51;101678.91;;;-0.73;81.45
13869;BME280;7004;48.206;16.402;2022-12-18T13:44:40;101676.91;;;-0.91;82.94
13869;BME280;7004;48.206;16.402;2022-12-18T13:49:57;101682.53;;;-0.60;82.01
13869;BME280;7004;48.206;16.402;2022-12-18T13:52:43;101690.38;;;-0.59;81.58
13869;BME280;7004;48.206;16.402;2022-12-18T13:55:19;101684.25;;;-0.64;82.50
13869;BME280;7004;48.206;16.402;2022-12-18T13:57:45;101683.97;;;-0.82;82.86
13869;BME280;7004;48.206;16.402;2022-12-18T14:00:29;101685.88;;;-0.71;82.77
13869;BME280;7004;48.206;16.402;2022-12-18T14:02:56;101691.31;;;-0.54;82.44
13869;BME280;7004;48.206;16.402;2022-12-18T14:05:32;101693.47;;;-0.84;82.34
13869;BME280;7004;48.206;16.402;2022-12-18T14:08:09;101688.50;;;-0.68;82.87
13869;BME280;7004;48.206;16.402;2022-12-18T14:10:41;101688.13;;;-0.95;83.99
13869;BME280;7004;48.206;16.402;2022-12-18T14:13:10;101687.47;;;-0.79;83.67
13869;BME280;7004;48.206;16.402;2022-12-18T14:15:43;101697.22;;;-0.64;83.50
13869;BME280;7004;48.206;16.402;2022-12-18T14:18:36;101697.13;;;-0.70;83.19
13869;BME280;7004;48.206;16.402;2022-12-18T14:21:05;101698.91;;;-0.66;83.52
13869;BME280;7004;48.206;16.402;2022-12-18T14:23:40;101705.31;;;-0.44;81.83
13869;BME280;7004;48.206;16.402;2022-12-18T14:26:24;101706.78;;;-1.18;85.72
13869;BME280;7004;48.206;16.402;2022-12-18T14:28:53;101715.53;;;-1.14;86.54
13869;BME280;7004;48.206;16.402;2022-12-18T14:31:25;101714.53;;;-0.63;83.54
13869;BME280;7004;48.206;16.402;2022-12-18T14:33:53;101718.09;;;-0.58;83.11
13869;BME280;7004;48.206;16.402;2022-12-18T14:36:23;101722.59;;;-0.45;82.98
13869;BME280;7004;48.206;16.402;2022-12-18T14:38:56;101717.91;;;-0.72;84.34
13869;BME280;7004;48.206;16.402;2022-12-18T14:41:23;101708.56;;;-0.57;83.92
13869;BME280;7004;48.206;16.402;2022-12-18T14:43:53;101715.97;;;-0.83;84.23
13869;BME280;7004;48.206;16.402;2022-12-18T14:46:36;101720.50;;;-1.26;85.21